sensor_id;sensor_type;location;lat;lon;timestamp;pressure;altitude;pressure_sealevel;temperature;humidity
72118;BME280;59992;47.490;8.736;2024-02-14T00:01:05;97137.23;;;3.02;93.43
72118;BME280;59992;47.490;8.736;2024-02-14T00:03:55;97138.73;;;3.02;93.81
72118;BME280;59992;47.490;8.736;2024-02-14T00:06:43;97137.10;;;3.03;94.03
72118;BME280;59992;47.490;8.736;2024-02-14T00:09:32;97136.48;;;3.02;94.49
72118;BME280;59992;47.490;8.736;2024-02-14T00:12:21;97132.89;;;3.04;94.30
72118;BME280;59992;47.490;8.736;2024-02-14T00:15:10;97135.77;;;3.04;94.28
72118;BME280;59992;47.490;8.736;2024-02-14T00:17:59;97143.61;;;3.07;94.34
72118;BME280;59992;47.490;8.736;2024-02-14T00:20:48;97144.02;;;3.09;94.54
72118;BME280;59992;47.490;8.736;2024-02-14T00:23:36;97142.44;;;3.12;93.94
72118;BME280;59992;47.490;8.736;2024-02-14T00:26:25;97145.98;;;3.15;94.37
72118;BME280;59992;47.490;8.736;2024-02-14T00:29:13;97139.64;;;3.17;94.29
72118;BME280;59992;47.490;8.736;2024-02-14T00:32:01;97136.27;;;3.16;94.87
72118;BME280;59992;47.490;8.736;2024-02-14T00:34:50;97135.36;;;3.20;94.46
72118;BME280;59992;47.490;8.736;2024-02-14T00:37:38;97135.60;;;3.20;94.68
72118;BME280;59992;47.490;8.736;2024-02-14T00:40:27;97138.02;;;3.24;94.26
72118;BME280;59992;47.490;8.736;2024-02-14T00:43:15;97136.09;;;3.25;94.25
72118;BME280;59992;47.490;8.736;2024-02-14T00:46:04;97138.24;;;3.28;93.74
72118;BME280;59992;47.490;8.736;2024-02-14T00:48:53;97144.64;;;3.30;93.62
72118;BME280;59992;47.490;8.736;2024-02-14T00:51:41;97143.04;;;3.31;93.31
72118;BME280;59992;47.490;8.736;2024-02-14T00:54:30;97148.35;;;3.32;92.83
72118;BME280;59992;47.490;8.736;2024-02-14T00:57:20;97151.84;;;3.33;93.20
72118;BME280;59992;47.490;8.736;2024-02-14T01:00:14;97153.86;;;3.38;92.84
72118;BME280;59992;47.490;8.736;2024-02-14T01:03:06;97158.90;;;3.42;93.42
72118;BME280;59992;47.490;8.736;2024-02-14T01:05:55;97159.41;;;3.47;93.24
72118;BME280;59992;47.490;8.736;2024-02-14T01:08:46;97160.82;;;3.51;92.99
72118;BME280;59992;47.490;8.736;2024-02-14T01:11:35;97159.21;;;3.55;91.95
72118;BME280;59992;47.490;8.736;2024-02-14T01:14:23;97161.81;;;3.57;91.81
72118;BME280;59992;47.490;8.736;2024-02-14T01:17:12;97170.77;;;3.60;91.97
72118;BME280;59992;47.490;8.736;2024-02-14T01:20:00;97165.59;;;3.62;91.56
72118;BME280;59992;47.490;8.736;2024-02-14T01:22:48;97173.64;;;3.62;91.93
72118;BME280;59992;47.490;8.736;2024-02-14T01:25:36;97177.33;;;3.64;91.34
72118;BME280;59992;47.490;8.736;2024-02-14T01:28:24;97175.91;;;3.66;91.28
72118;BME280;59992;47.490;8.736;2024-02-14T01:31:15;97177.39;;;3.68;91.32
72118;BME280;59992;47.490;8.736;2024-02-14T01:34:03;97173.81;;;3.69;90.87
72118;BME280;59992;47.490;8.736;2024-02-14T01:36:51;97173.14;;;3.71;91.02
72118;BME280;59992;47.490;8.736;2024-02-14T01:39:40;97171.45;;;3.71;90.96
72118;BME280;59992;47.490;8.736;2024-02-14T01:42:28;97171.83;;;3.75;91.10
72118;BME280;59992;47.490;8.736;2024-02-14T01:45:16;97177.55;;;3.77;90.40
72118;BME280;59992;47.490;8.736;2024-02-14T01:48:08;97177.63;;;3.78;90.64
72118;BME280;59992;47.490;8.736;2024-02-14T01:50:58;97180.92;;;3.80;90.85
72118;BME280;59992;47.490;8.736;2024-02-14T01:53:48;97181.90;;;3.81;90.43
72118;BME280;59992;47.490;8.736;2024-02-14T01:56:36;97175.89;;;3.84;90.49
72118;BME280;59992;47.490;8.736;2024-02-14T01:59:25;97172.86;;;3.88;89.95
72118;BME280;59992;47.490;8.736;2024-02-14T02:02:14;97170.64;;;3.90;90.04
72118;BME280;59992;47.490;8.736;2024-02-14T02:05:02;97167.51;;;3.92;89.62
72118;BME280;59992;47.490;8.736;2024-02-14T02:07:51;97168.56;;;3.95;89.80
72118;BME280;59992;47.490;8.736;2024-02-14T02:10:39;97164.35;;;3.96;89.76
72118;BME280;59992;47.490;8.736;2024-02-14T02:13:27;97162.27;;;3.99;89.75
72118;BME280;59992;47.490;8.736;2024-02-14T02:16:15;97160.19;;;4.04;89.89
72118;BME280;59992;47.490;8.736;2024-02-14T02:19:06;97159.02;;;4.09;89.45
72118;BME280;59992;47.490;8.736;2024-02-14T02:22:00;97155.73;;;4.14;88.46
72118;BME280;59992;47.490;8.736;2024-02-14T02:24:48;97143.78;;;4.19;88.25
72118;BME280;59992;47.490;8.736;2024-02-14T02:27:38;97143.77;;;4.30;87.45
72118;BME280;59992;47.490;8.736;2024-02-14T02:30:26;97145.63;;;4.38;87.03
72118;BME280;59992;47.490;8.736;2024-02-14T02:33:14;97142.83;;;4.47;86.64
72118;BME280;59992;47.490;8.736;2024-02-14T02:36:02;97136.84;;;4.54;86.46
72118;BME280;59992;47.490;8.736;2024-02-14T02:38:51;97132.39;;;4.62;85.04
72118;BME280;59992;47.490;8.736;2024-02-14T02:41:39;97129.29;;;4.70;83.90
72118;BME280;59992;47.490;8.736;2024-02-14T02:44:27;97127.33;;;4.79;84.16
72118;BME280;59992;47.490;8.736;2024-02-14T02:47:15;97130.24;;;4.84;84.09
72118;BME280;59992;47.490;8.736;2024-02-14T02:50:05;97125.20;;;4.84;83.52
72118;BME280;59992;47.490;8.736;2024-02-14T02:52:53;97123.47;;;4.80;83.38
72118;BME280;59992;47.490;8.736;2024-02-14T02:55:42;97115.42;;;4.70;82.62
72118;BME280;59992;47.490;8.736;2024-02-14T02:58:30;97125.10;;;4.72;82.57
72118;BME280;59992;47.490;8.736;2024-02-14T03:01:20;97122.84;;;4.67;82.31
72118;BME280;59992;47.490;8.736;2024-02-14T03:04:11;97126.45;;;4.64;82.97
72118;BME280;59992;47.490;8.736;2024-02-14T03:07:02;97125.27;;;4.57;82.80
72118;BME280;59992;47.490;8.736;2024-02-14T03:09:55;97125.57;;;4.48;82.64
72118;BME280;59992;47.490;8.736;2024-02-14T03:12:45;97125.62;;;4.41;81.54
72118;BME280;59992;47.490;8.736;2024-02-14T03:15:35;97130.53;;;4.39;81.70
72118;BME280;59992;47.490;8.736;2024-02-14T03:18:23;97137.16;;;4.36;81.85
72118;BME280;59992;47.490;8.736;2024-02-14T03:21:11;97143.25;;;4.30;81.60
72118;BME280;59992;47.490;8.736;2024-02-14T03:23:59;97147.10;;;4.24;82.25
72118;BME280;59992;47.490;8.736;2024-02-14T03:26:51;97152.11;;;4.18;82.13
72118;BME280;59992;47.490;8.736;2024-02-14T03:29:41;97148.90;;;4.10;81.98
72118;BME280;59992;47.490;8.736;2024-02-14T03:32:29;97150.77;;;4.00;82.43
72118;BME280;59992;47.490;8.736;2024-02-14T03:35:17;97156.05;;;3.90;82.52
72118;BME280;59992;47.490;8.736;2024-02-14T03:38:07;97157.83;;;3.81;82.91
72118;BME280;59992;47.490;8.736;2024-02-14T03:40:56;97157.27;;;3.72;84.12
72118;BME280;59992;47.490;8.736;2024-02-14T03:43:44;97157.64;;;3.65;84.43
72118;BME280;59992;47.490;8.736;2024-02-14T03:46:33;97154.48;;;3.62;84.13
72118;BME280;59992;47.490;8.736;2024-02-14T03:49:22;97159.09;;;3.62;85.92
72118;BME280;59992;47.490;8.736;2024-02-14T03:52:10;97158.08;;;3.62;85.43
72118;BME280;59992;47.490;8.736;2024-02-14T03:54:59;97160.28;;;3.65;85.06
72118;BME280;59992;47.490;8.736;2024-02-14T03:57:47;97165.42;;;3.67;85.30
72118;BME280;59992;47.490;8.736;2024-02-14T04:00:36;97159.88;;;3.71;85.30
72118;BME280;59992;47.490;8.736;2024-02-14T04:03:24;97159.80;;;3.74;85.80
72118;BME280;59992;47.490;8.736;2024-02-14T04:06:13;97167.21;;;3.77;86.04
72118;BME280;59992;47.490;8.736;2024-02-14T04:09:01;97172.30;;;3.81;86.86
72118;BME280;59992;47.490;8.736;2024-02-14T04:11:49;97172.20;;;3.87;87.86
72118;BME280;59992;47.490;8.736;2024-02-14T04:14:38;97168.46;;;3.93;87.91
72118;BME280;59992;47.490;8.736;2024-02-14T04:17:26;97168.40;;;3.99;87.82
72118;BME280;59992;47.490;8.736;2024-02-14T04:20:14;97168.06;;;4.06;88.00
72118;BME280;59992;47.490;8.736;2024-02-14T04:23:02;97163.05;;;4.11;87.53
72118;BME280;59992;47.490;8.736;2024-02-14T04:25:53;97162.33;;;4.18;87.77
72118;BME280;59992;47.490;8.736;2024-02-14T04:28:42;97162.70;;;4.24;87.04
72118;BME280;59992;47.490;8.736;2024-02-14T04:31:30;97168.48;;;4.29;86.00
72118;BME280;59992;47.490;8.736;2024-02-14T04:34:19;97168.12;;;4.33;85.85
72118;BME280;59992;47.490;8.736;2024-02-14T04:37:07;97168.10;;;4.35;84.85
72118;BME280;59992;47.490;8.736;2024-02-14T04:40:00;97161.89;;;4.38;84.53
72118;BME280;59992;47.490;8.736;2024-02-14T04:42:48;97164.45;;;4.38;84.02
72118;BME280;59992;47.490;8.736;2024-02-14T04:45:36;97171.97;;;4.36;84.21
72118;BME280;59992;47.490;8.736;2024-02-14T04:48:24;97167.56;;;4.32;84.09
72118;BME280;59992;47.490;8.736;2024-02-14T04:51:13;97168.79;;;4.28;83.43
72118;BME280;59992;47.490;8.736;2024-02-14T04:54:02;97172.85;;;4.27;83.41
72118;BME280;59992;47.490;8.736;2024-02-14T04:56:50;97172.65;;;4.22;83.37
72118;BME280;59992;47.490;8.736;2024-02-14T04:59:39;97172.84;;;4.20;83.30
72118;BME280;59992;47.490;8.736;2024-02-14T05:02:27;97180.42;;;4.19;83.81
72118;BME280;59992;47.490;8.736;2024-02-14T05:05:15;97179.10;;;4.19;83.98
72118;BME280;59992;47.490;8.736;2024-02-14T05:08:05;97177.81;;;4.22;83.27
72118;BME280;59992;47.490;8.736;2024-02-14T05:10:53;97181.37;;;4.28;83.13
72118;BME280;59992;47.490;8.736;2024-02-14T05:13:43;97181.52;;;4.32;83.45
72118;BME280;59992;47.490;8.736;2024-02-14T05:16:32;97181.07;;;4.37;83.53
72118;BME280;59992;47.490;8.736;2024-02-14T05:19:23;97182.23;;;4.43;83.36
72118;BME280;59992;47.490;8.736;2024-02-14T05:22:11;97184.77;;;4.47;83.43
72118;BME280;59992;47.490;8.736;2024-02-14T05:24:59;97183.96;;;4.50;83.49
72118;BME280;59992;47.490;8.736;2024-02-14T05:27:48;97192.23;;;4.62;83.60
72118;BME280;59992;47.490;8.736;2024-02-14T05:30:36;97196.05;;;4.68;83.74
72118;BME280;59992;47.490;8.736;2024-02-14T05:33:25;97200.83;;;4.74;83.06
72118;BME280;59992;47.490;8.736;2024-02-14T05:36:13;97203.18;;;4.76;82.99
72118;BME280;59992;47.490;8.736;2024-02-14T05:39:02;97200.88;;;4.85;83.22
72118;BME280;59992;47.490;8.736;2024-02-14T05:41:51;97194.36;;;4.90;82.42
72118;BME280;59992;47.490;8.736;2024-02-14T05:44:42;97196.13;;;4.94;82.14
72118;BME280;59992;47.490;8.736;2024-02-14T05:47:30;97196.45;;;4.96;82.39
72118;BME280;59992;47.490;8.736;2024-02-14T05:50:19;97199.13;;;4.96;81.66
72118;BME280;59992;47.490;8.736;2024-02-14T05:53:07;97199.65;;;4.94;81.99
72118;BME280;59992;47.490;8.736;2024-02-14T05:55:55;97202.68;;;4.93;81.66
72118;BME280;59992;47.490;8.736;2024-02-14T05:58:43;97201.40;;;4.90;82.08
72118;BME280;59992;47.490;8.736;2024-02-14T06:01:31;97199.20;;;4.86;81.98
72118;BME280;59992;47.490;8.736;2024-02-14T06:04:19;97199.08;;;4.82;81.84
72118;BME280;59992;47.490;8.736;2024-02-14T06:07:08;97199.75;;;4.75;81.37
72118;BME280;59992;47.490;8.736;2024-02-14T06:09:57;97204.90;;;4.69;81.37
72118;BME280;59992;47.490;8.736;2024-02-14T06:12:46;97210.73;;;4.62;81.53
72118;BME280;59992;47.490;8.736;2024-02-14T06:15:35;97227.26;;;4.54;81.69
72118;BME280;59992;47.490;8.736;2024-02-14T06:18:23;97232.27;;;4.46;82.05
72118;BME280;59992;47.490;8.736;2024-02-14T06:21:12;97231.30;;;4.39;81.54
72118;BME280;59992;47.490;8.736;2024-02-14T06:24:00;97238.36;;;4.34;81.73
72118;BME280;59992;47.490;8.736;2024-02-14T06:26:48;97236.18;;;4.29;81.90
72118;BME280;59992;47.490;8.736;2024-02-14T06:29:36;97232.28;;;4.28;81.90
72118;BME280;59992;47.490;8.736;2024-02-14T06:32:24;97229.01;;;4.25;81.83
72118;BME280;59992;47.490;8.736;2024-02-14T06:35:12;97227.46;;;4.22;81.89
72118;BME280;59992;47.490;8.736;2024-02-14T06:38:02;97236.29;;;4.21;82.00
72118;BME280;59992;47.490;8.736;2024-02-14T06:40:51;97242.84;;;4.21;82.32
72118;BME280;59992;47.490;8.736;2024-02-14T06:43:39;97247.91;;;4.24;82.23
72118;BME280;59992;47.490;8.736;2024-02-14T06:46:27;97244.63;;;4.27;82.64
72118;BME280;59992;47.490;8.736;2024-02-14T06:49:16;97242.48;;;4.29;82.65
72118;BME280;59992;47.490;8.736;2024-02-14T06:52:05;97248.38;;;4.32;82.92
72118;BME280;59992;47.490;8.736;2024-02-14T06:54:54;97250.39;;;4.34;82.65
72118;BME280;59992;47.490;8.736;2024-02-14T06:57:42;97249.00;;;4.37;82.17
72118;BME280;59992;47.490;8.736;2024-02-14T07:00:31;97252.83;;;4.40;81.55
72118;BME280;59992;47.490;8.736;2024-02-14T07:03:19;97257.27;;;4.45;82.10
72118;BME280;59992;47.490;8.736;2024-02-14T07:06:08;97255.27;;;4.49;82.34
72118;BME280;59992;47.490;8.736;2024-02-14T07:08:56;97253.05;;;4.54;82.28
72118;BME280;59992;47.490;8.736;2024-02-14T07:11:44;97250.41;;;4.62;82.65
72118;BME280;59992;47.490;8.736;2024-02-14T07:14:33;97249.46;;;4.77;83.73
72118;BME280;59992;47.490;8.736;2024-02-14T07:17:22;97256.78;;;5.04;83.78
72118;BME280;59992;47.490;8.736;2024-02-14T07:20:11;97262.41;;;5.41;83.18
72118;BME280;59992;47.490;8.736;2024-02-14T07:22:59;97263.20;;;5.89;82.23
72118;BME280;59992;47.490;8.736;2024-02-14T07:25:47;97255.27;;;6.18;78.60
72118;BME280;59992;47.490;8.736;2024-02-14T07:28:36;97246.64;;;6.42;78.41
72118;BME280;59992;47.490;8.736;2024-02-14T07:31:27;97245.20;;;6.58;74.41
72118;BME280;59992;47.490;8.736;2024-02-14T07:34:16;97246.16;;;6.73;75.06
72118;BME280;59992;47.490;8.736;2024-02-14T07:37:05;97243.91;;;6.86;75.02
72118;BME280;59992;47.490;8.736;2024-02-14T07:39:53;97236.20;;;7.00;74.21
72118;BME280;59992;47.490;8.736;2024-02-14T07:42:41;97242.96;;;7.11;72.95
72118;BME280;59992;47.490;8.736;2024-02-14T07:45:29;97243.34;;;7.25;74.64
72118;BME280;59992;47.490;8.736;2024-02-14T07:48:18;97238.81;;;7.38;72.17
72118;BME280;59992;47.490;8.736;2024-02-14T07:51:08;97236.34;;;7.51;72.83
72118;BME280;59992;47.490;8.736;2024-02-14T07:53:56;97234.11;;;7.56;72.86
72118;BME280;59992;47.490;8.736;2024-02-14T07:56:45;97236.92;;;7.67;74.33
72118;BME280;59992;47.490;8.736;2024-02-14T07:59:33;97231.94;;;7.80;75.21
72118;BME280;59992;47.490;8.736;2024-02-14T08:02:22;97231.41;;;7.91;71.86
72118;BME280;59992;47.490;8.736;2024-02-14T08:05:10;97231.09;;;8.01;71.43
72118;BME280;59992;47.490;8.736;2024-02-14T08:07:58;97227.59;;;8.12;70.06
72118;BME280;59992;47.490;8.736;2024-02-14T08:10:47;97224.83;;;8.19;71.46
72118;BME280;59992;47.490;8.736;2024-02-14T08:13:35;97220.70;;;8.27;70.06
72118;BME280;59992;47.490;8.736;2024-02-14T08:16:25;97223.36;;;8.39;69.81
72118;BME280;59992;47.490;8.736;2024-02-14T08:19:26;97223.00;;;8.58;68.28
72118;BME280;59992;47.490;8.736;2024-02-14T08:22:25;97225.85;;;8.80;68.63
72118;BME280;59992;47.490;8.736;2024-02-14T08:25:32;97229.20;;;9.03;68.29
72118;BME280;59992;47.490;8.736;2024-02-14T08:28:23;97227.69;;;9.27;67.85
72118;BME280;59992;47.490;8.736;2024-02-14T08:31:37;97225.52;;;9.46;65.20
72118;BME280;59992;47.490;8.736;2024-02-14T08:34:40;97226.33;;;9.61;64.55
72118;BME280;59992;47.490;8.736;2024-02-14T08:37:30;97235.06;;;9.77;63.42
72118;BME280;59992;47.490;8.736;2024-02-14T08:40:21;97238.44;;;9.90;63.02
72118;BME280;59992;47.490;8.736;2024-02-14T08:43:11;97236.05;;;10.08;63.08
72118;BME280;59992;47.490;8.736;2024-02-14T08:46:00;97236.44;;;10.20;59.47
72118;BME280;59992;47.490;8.736;2024-02-14T08:48:50;97234.48;;;10.35;62.35
72118;BME280;59992;47.490;8.736;2024-02-14T08:51:38;97236.40;;;10.40;57.40
72118;BME280;59992;47.490;8.736;2024-02-14T08:54:27;97240.55;;;10.51;64.04
72118;BME280;59992;47.490;8.736;2024-02-14T08:57:16;97242.70;;;10.56;63.65
72118;BME280;59992;47.490;8.736;2024-02-14T09:00:08;97246.52;;;10.57;60.29
72118;BME280;59992;47.490;8.736;2024-02-14T09:02:59;97248.41;;;10.63;63.89
72118;BME280;59992;47.490;8.736;2024-02-14T09:05:47;97248.32;;;10.63;62.29
72118;BME280;59992;47.490;8.736;2024-02-14T09:08:37;97249.88;;;10.68;58.90
72118;BME280;59992;47.490;8.736;2024-02-14T09:11:25;97258.14;;;10.74;61.28
72118;BME280;59992;47.490;8.736;2024-02-14T09:14:14;97256.63;;;10.80;62.30
72118;BME280;59992;47.490;8.736;2024-02-14T09:17:02;97258.91;;;10.87;62.93
72118;BME280;59992;47.490;8.736;2024-02-14T09:19:51;97257.44;;;10.93;57.74
72118;BME280;59992;47.490;8.736;2024-02-14T09:22:39;97259.64;;;11.00;54.94
72118;BME280;59992;47.490;8.736;2024-02-14T09:25:29;97261.08;;;11.07;54.56
72118;BME280;59992;47.490;8.736;2024-02-14T09:28:17;97262.42;;;11.16;55.40
72118;BME280;59992;47.490;8.736;2024-02-14T09:31:05;97266.16;;;11.20;50.44
72118;BME280;59992;47.490;8.736;2024-02-14T09:33:53;97262.95;;;11.23;50.15
72118;BME280;59992;47.490;8.736;2024-02-14T09:36:44;97262.70;;;11.29;51.72
72118;BME280;59992;47.490;8.736;2024-02-14T09:39:33;97257.69;;;11.32;51.54
72118;BME280;59992;47.490;8.736;2024-02-14T09:42:31;97257.77;;;11.43;52.73
72118;BME280;59992;47.490;8.736;2024-02-14T09:45:25;97256.70;;;11.42;51.93
72118;BME280;59992;47.490;8.736;2024-02-14T09:48:15;97257.95;;;11.44;49.61
72118;BME280;59992;47.490;8.736;2024-02-14T09:51:05;97262.83;;;11.49;51.44
72118;BME280;59992;47.490;8.736;2024-02-14T09:53:55;97257.96;;;11.53;51.00
72118;BME280;59992;47.490;8.736;2024-02-14T09:56:44;97254.95;;;11.61;52.29
72118;BME280;59992;47.490;8.736;2024-02-14T09:59:38;97256.30;;;11.73;51.60
72118;BME280;59992;47.490;8.736;2024-02-14T10:02:27;97251.39;;;11.87;52.68
72118;BME280;59992;47.490;8.736;2024-02-14T10:05:18;97239.92;;;11.90;49.32
72118;BME280;59992;47.490;8.736;2024-02-14T10:08:07;97245.56;;;12.08;51.54
72118;BME280;59992;47.490;8.736;2024-02-14T10:10:57;97247.58;;;12.23;53.24
72118;BME280;59992;47.490;8.736;2024-02-14T10:13:47;97250.34;;;12.39;50.56
72118;BME280;59992;47.490;8.736;2024-02-14T10:16:35;97251.48;;;12.43;47.70
72118;BME280;59992;47.490;8.736;2024-02-14T10:19:24;97258.25;;;12.57;46.58
72118;BME280;59992;47.490;8.736;2024-02-14T10:22:15;97253.45;;;12.65;46.36
72118;BME280;59992;47.490;8.736;2024-02-14T10:25:04;97259.60;;;12.65;45.09
72118;BME280;59992;47.490;8.736;2024-02-14T10:27:55;97262.32;;;12.84;48.13
72118;BME280;59992;47.490;8.736;2024-02-14T10:30:47;97269.45;;;12.98;45.93
72118;BME280;59992;47.490;8.736;2024-02-14T10:33:37;97273.88;;;13.03;45.34
72118;BME280;59992;47.490;8.736;2024-02-14T10:36:27;97272.02;;;13.05;44.15
72118;BME280;59992;47.490;8.736;2024-02-14T10:39:15;97283.96;;;13.10;43.83
72118;BME280;59992;47.490;8.736;2024-02-14T10:42:13;97288.64;;;13.18;47.21
72118;BME280;59992;47.490;8.736;2024-02-14T10:45:08;97285.67;;;13.13;44.54
72118;BME280;59992;47.490;8.736;2024-02-14T10:47:56;97285.81;;;13.12;44.01
72118;BME280;59992;47.490;8.736;2024-02-14T10:50:47;97282.50;;;13.15;45.09
72118;BME280;59992;47.490;8.736;2024-02-14T10:53:39;97278.68;;;13.13;45.36
72118;BME280;59992;47.490;8.736;2024-02-14T10:56:30;97283.19;;;13.05;43.95
72118;BME280;59992;47.490;8.736;2024-02-14T10:59:20;97279.05;;;13.13;45.84
72118;BME280;59992;47.490;8.736;2024-02-14T11:02:10;97281.41;;;13.24;47.01
72118;BME280;59992;47.490;8.736;2024-02-14T11:05:00;97278.14;;;13.18;46.03
72118;BME280;59992;47.490;8.736;2024-02-14T11:07:50;97279.61;;;13.20;47.29
72118;BME280;59992;47.490;8.736;2024-02-14T11:10:40;97279.27;;;13.12;45.38
72118;BME280;59992;47.490;8.736;2024-02-14T11:13:30;97278.23;;;13.04;45.64
72118;BME280;59992;47.490;8.736;2024-02-14T11:16:18;97284.04;;;13.05;46.23
72118;BME280;59992;47.490;8.736;2024-02-14T11:19:11;97278.99;;;13.18;47.03
72118;BME280;59992;47.490;8.736;2024-02-14T11:22:12;97271.46;;;13.24;46.49
72118;BME280;59992;47.490;8.736;2024-02-14T11:25:07;97268.77;;;13.32;45.24
72118;BME280;59992;47.490;8.736;2024-02-14T11:27:55;97276.00;;;13.39;44.78
72118;BME280;59992;47.490;8.736;2024-02-14T11:30:45;97278.59;;;13.51;47.94
72118;BME280;59992;47.490;8.736;2024-02-14T11:33:33;97272.68;;;13.36;44.97
72118;BME280;59992;47.490;8.736;2024-02-14T11:36:21;97262.97;;;13.43;46.13
72118;BME280;59992;47.490;8.736;2024-02-14T11:39:11;97252.92;;;13.48;46.21
72118;BME280;59992;47.490;8.736;2024-02-14T11:42:02;97252.27;;;13.57;46.91
72118;BME280;59992;47.490;8.736;2024-02-14T11:44:50;97249.03;;;13.54;45.65
72118;BME280;59992;47.490;8.736;2024-02-14T11:47:39;97246.59;;;13.58;46.23
72118;BME280;59992;47.490;8.736;2024-02-14T11:50:27;97240.39;;;13.63;47.82
72118;BME280;59992;47.490;8.736;2024-02-14T11:53:18;97239.02;;;13.62;46.23
72118;BME280;59992;47.490;8.736;2024-02-14T11:56:07;97245.86;;;13.62;46.30
72118;BME280;59992;47.490;8.736;2024-02-14T11:58:57;97252.08;;;13.61;46.66
72118;BME280;59992;47.490;8.736;2024-02-14T12:01:46;97258.53;;;13.59;46.88
72118;BME280;59992;47.490;8.736;2024-02-14T12:04:36;97267.41;;;13.64;47.18
72118;BME280;59992;47.490;8.736;2024-02-14T12:07:24;97269.39;;;13.64;46.52
72118;BME280;59992;47.490;8.736;2024-02-14T12:10:13;97271.11;;;13.62;46.90
72118;BME280;59992;47.490;8.736;2024-02-14T12:13:07;97271.20;;;13.62;45.52
72118;BME280;59992;47.490;8.736;2024-02-14T12:15:56;97268.09;;;13.70;46.85
72118;BME280;59992;47.490;8.736;2024-02-14T12:18:44;97262.45;;;13.75;46.91
72118;BME280;59992;47.490;8.736;2024-02-14T12:21:35;97261.95;;;13.65;46.60
72118;BME280;59992;47.490;8.736;2024-02-14T12:24:23;97260.84;;;13.60;48.27
72118;BME280;59992;47.490;8.736;2024-02-14T12:27:11;97266.61;;;13.47;47.74
72118;BME280;59992;47.490;8.736;2024-02-14T12:29:59;97265.73;;;13.45;48.53
72118;BME280;59992;47.490;8.736;2024-02-14T12:32:59;97265.42;;;13.51;48.18
72118;BME280;59992;47.490;8.736;2024-02-14T12:35:47;97259.34;;;13.50;46.87
72118;BME280;59992;47.490;8.736;2024-02-14T12:38:36;97257.36;;;13.57;48.90
72118;BME280;59992;47.490;8.736;2024-02-14T12:41:24;97250.32;;;13.60;48.88
72118;BME280;59992;47.490;8.736;2024-02-14T12:44:13;97239.31;;;13.62;48.03
72118;BME280;59992;47.490;8.736;2024-02-14T12:47:02;97236.83;;;13.65;47.82
72118;BME280;59992;47.490;8.736;2024-02-14T12:49:50;97236.11;;;13.74;49.01
72118;BME280;59992;47.490;8.736;2024-02-14T12:52:39;97237.89;;;13.84;48.46
72118;BME280;59992;47.490;8.736;2024-02-14T12:55:27;97231.11;;;13.92;49.29
72118;BME280;59992;47.490;8.736;2024-02-14T12:58:17;97232.13;;;13.87;47.79
72118;BME280;59992;47.490;8.736;2024-02-14T13:01:05;97226.44;;;13.88;48.66
72118;BME280;59992;47.490;8.736;2024-02-14T13:03:54;97218.69;;;13.83;47.82
72118;BME280;59992;47.490;8.736;2024-02-14T13:06:42;97230.84;;;13.87;47.30
72118;BME280;59992;47.490;8.736;2024-02-14T13:09:30;97227.77;;;13.78;46.70
72118;BME280;59992;47.490;8.736;2024-02-14T13:12:19;97225.86;;;13.85;47.46
72118;BME280;59992;47.490;8.736;2024-02-14T13:15:08;97222.71;;;13.83;47.73
72118;BME280;59992;47.490;8.736;2024-02-14T13:17:57;97219.82;;;13.75;47.19
72118;BME280;59992;47.490;8.736;2024-02-14T13:20:46;97221.89;;;13.50;46.80
72118;BME280;59992;47.490;8.736;2024-02-14T13:23:35;97222.55;;;13.61;47.08
72118;BME280;59992;47.490;8.736;2024-02-14T13:26:23;97217.67;;;13.67;47.12
72118;BME280;59992;47.490;8.736;2024-02-14T13:29:11;97213.87;;;13.74;47.45
72118;BME280;59992;47.490;8.736;2024-02-14T13:31:59;97210.94;;;13.85;48.36
72118;BME280;59992;47.490;8.736;2024-02-14T13:34:48;97209.36;;;13.93;48.95
72118;BME280;59992;47.490;8.736;2024-02-14T13:37:36;97207.21;;;14.00;47.72
72118;BME280;59992;47.490;8.736;2024-02-14T13:40:25;97211.77;;;14.05;49.12
72118;BME280;59992;47.490;8.736;2024-02-14T13:43:13;97209.20;;;14.00;48.49
72118;BME280;59992;47.490;8.736;2024-02-14T13:46:04;97205.20;;;14.03;49.12
72118;BME280;59992;47.490;8.736;2024-02-14T13:48:53;97203.68;;;14.13;49.15
72118;BME280;59992;47.490;8.736;2024-02-14T13:51:42;97200.91;;;14.09;47.74
72118;BME280;59992;47.490;8.736;2024-02-14T13:54:30;97202.55;;;14.06;47.76
72118;BME280;59992;47.490;8.736;2024-02-14T13:57:18;97205.48;;;14.18;48.99
72118;BME280;59992;47.490;8.736;2024-02-14T14:00:09;97207.02;;;14.26;49.40
72118;BME280;59992;47.490;8.736;2024-02-14T14:02:57;97201.39;;;14.34;49.52
72118;BME280;59992;47.490;8.736;2024-02-14T14:05:45;97202.20;;;14.42;49.29
72118;BME280;59992;47.490;8.736;2024-02-14T14:08:35;97191.46;;;14.42;48.65
72118;BME280;59992;47.490;8.736;2024-02-14T14:11:23;97197.59;;;14.29;49.27
72118;BME280;59992;47.490;8.736;2024-02-14T14:14:11;97203.74;;;14.34;50.14
72118;BME280;59992;47.490;8.736;2024-02-14T14:17:05;97208.33;;;14.34;50.86
72118;BME280;59992;47.490;8.736;2024-02-14T14:19:54;97201.66;;;14.31;51.41
72118;BME280;59992;47.490;8.736;2024-02-14T14:22:42;97198.82;;;14.36;51.57
72118;BME280;59992;47.490;8.736;2024-02-14T14:25:31;97193.13;;;14.40;51.82
72118;BME280;59992;47.490;8.736;2024-02-14T14:28:21;97191.79;;;14.34;51.29
72118;BME280;59992;47.490;8.736;2024-02-14T14:31:12;97186.90;;;14.25;51.20
72118;BME280;59992;47.490;8.736;2024-02-14T14:34:00;97183.54;;;14.17;51.84
72118;BME280;59992;47.490;8.736;2024-02-14T14:36:49;97179.96;;;14.10;51.63
72118;BME280;59992;47.490;8.736;2024-02-14T14:39:37;97186.54;;;14.04;52.13
72118;BME280;59992;47.490;8.736;2024-02-14T14:42:25;97184.79;;;14.05;52.24
72118;BME280;59992;47.490;8.736;2024-02-14T14:45:14;97189.50;;;14.04;52.79
72118;BME280;59992;47.490;8.736;2024-02-14T14:48:02;97190.48;;;14.02;52.88
72118;BME280;59992;47.490;8.736;2024-02-14T14:50:50;97198.45;;;13.99;53.01
72118;BME280;59992;47.490;8.736;2024-02-14T14:53:38;97204.17;;;13.92;52.77
72118;BME280;59992;47.490;8.736;2024-02-14T14:56:27;97202.61;;;13.90;53.30
72118;BME280;59992;47.490;8.736;2024-02-14T14:59:15;97199.91;;;13.78;52.79
72118;BME280;59992;47.490;8.736;2024-02-14T15:02:06;97200.52;;;13.79;53.24
72118;BME280;59992;47.490;8.736;2024-02-14T15:04:54;97195.65;;;13.81;53.59